Time;durP1;ratioP1;P1;durP2;ratioP2;P2;SDS_P1;SDS_P2;PMS_P1;PMS_P2;Temp;Humidity;BMP_temperature;BMP_pressure;BME280_temperature;BME280_humidity;BME280_pressure;Samples;Min_cycle;Max_cycle;Signal;HPM_P1;HPM_P2
2023/12/25 00:00:56;;;;;;;;;;;12.30;99.90;;;;;;6746891;88;20108;-79
2023/12/25 00:10:57;;;;;;;;;;;12.30;99.90;;;;;;6745729;88;20105;-79
2023/12/25 00:20:57;;;;;;;;;;;12.40;99.90;;;;;;6741688;88;20083;-79
2023/12/25 00:30:58;;;;;;;;;;;12.40;99.90;;;;;;6739807;88;20083;-79
2023/12/25 00:40:58;;;;;;;;;;;12.40;99.90;;;;;;6742061;88;20054;-78
2023/12/25 00:50:58;;;;;;;;;;;12.40;99.90;;;;;;6740645;88;20091;-78
2023/12/25 01:00:59;;;;;;;;;;;12.40;99.90;;;;;;6750909;88;20630;-79
2023/12/25 01:11:03;;;;;;;;;;;12.40;99.90;;;;;;6739341;88;20089;-79
2023/12/25 01:21:03;;;;;;;;;;;12.40;99.90;;;;;;6749378;88;20082;-79
2023/12/25 01:31:04;;;;;;;;;;;12.50;99.90;;;;;;6750136;88;20129;-79
2023/12/25 01:41:04;;;;;;;;;;;12.50;99.90;;;;;;6750492;88;21283;-79
2023/12/25 01:51:05;;;;;;;;;;;12.40;99.90;;;;;;6768162;88;20083;-79
2023/12/25 02:01:05;;;;;;;;;;;12.50;99.90;;;;;;6750578;88;20583;-79
2023/12/25 02:11:06;;;;;;;;;;;12.60;99.90;;;;;;6750358;88;20058;-79
2023/12/25 02:21:06;;;;;;;;;;;12.50;99.90;;;;;;6749879;88;20071;-79
2023/12/25 02:31:07;;;;;;;;;;;12.50;99.90;;;;;;6750760;88;20082;-81
2023/12/25 02:41:07;;;;;;;;;;;12.70;99.90;;;;;;6751418;88;20045;-80
2023/12/25 02:51:08;;;;;;;;;;;12.60;99.90;;;;;;6757792;87;20053;-79
2023/12/25 03:01:08;;;;;;;;;;;12.60;99.90;;;;;;6784606;87;20086;-80
2023/12/25 03:11:08;;;;;;;;;;;12.70;99.90;;;;;;6784077;87;20151;-78
2023/12/25 03:21:09;;;;;;;;;;;12.60;99.90;;;;;;6775935;87;20049;-78
2023/12/25 03:31:10;;;;;;;;;;;12.70;99.90;;;;;;6766214;88;20052;-79
2023/12/25 03:41:10;;;;;;;;;;;12.60;99.90;;;;;;6761385;87;20123;-80
2023/12/25 03:51:10;;;;;;;;;;;12.70;99.90;;;;;;6752545;87;20166;-79
2023/12/25 04:12:13;;;;;;;;;;;12.70;99.90;;;;;;6781509;87;20052;-81
2023/12/25 04:22:13;;;;;;;;;;;12.80;99.90;;;;;;6766107;87;20098;-80
2023/12/25 04:32:14;;;;;;;;;;;12.70;99.90;;;;;;6763411;87;20102;-79
2023/12/25 04:42:14;;;;;;;;;;;12.90;99.90;;;;;;6749665;87;20083;-81
2023/12/25 04:52:14;;;;;;;;;;;12.70;99.90;;;;;;6768621;87;20120;-81
2023/12/25 05:02:15;;;;;;;;;;;12.80;99.90;;;;;;6768507;87;20085;-81
2023/12/25 05:12:15;;;;;;;;;;;12.80;99.90;;;;;;6770681;87;20097;-81
2023/12/25 05:22:16;;;;;;;;;;;12.40;99.90;;;;;;6733968;88;20134;-81
2023/12/25 05:32:17;;;;;;;;;;;12.00;99.90;;;;;;6731384;88;20054;-82
2023/12/25 05:42:17;;;;;;;;;;;11.70;99.90;;;;;;6731695;88;20121;-81
2023/12/25 05:52:18;;;;;;;;;;;11.60;99.90;;;;;;6761144;87;20115;-82
2023/12/25 06:02:18;;;;;;;;;;;11.40;99.90;;;;;;6749132;88;20036;-82
2023/12/25 06:12:19;;;;;;;;;;;11.30;99.90;;;;;;6749242;88;20797;-83
2023/12/25 06:22:19;;;;;;;;;;;11.20;99.90;;;;;;6731839;88;20058;-82
2023/12/25 06:32:20;;;;;;;;;;;11.20;99.90;;;;;;6745215;88;20037;-83
2023/12/25 06:42:20;;;;;;;;;;;11.20;99.90;;;;;;6748889;88;20047;-82
2023/12/25 06:52:21;;;;;;;;;;;11.20;99.90;;;;;;6731585;88;20110;-84
2023/12/25 07:02:23;;;;;;;;;;;11.20;99.90;;;;;;6731855;88;20103;-83
2023/12/25 07:12:23;;;;;;;;;;;11.10;99.90;;;;;;6731822;88;20047;-83
2023/12/25 07:22:24;;;;;;;;;;;11.10;99.90;;;;;;6760274;87;20117;-83
2023/12/25 07:32:27;;;;;;;;;;;11.20;99.90;;;;;;6748180;88;20055;-82
2023/12/25 07:42:27;;;;;;;;;;;11.20;99.90;;;;;;6762649;87;20117;-82
2023/12/25 07:52:28;;;;;;;;;;;11.20;99.90;;;;;;6767425;87;20034;-82
2023/12/25 08:02:29;;;;;;;;;;;11.30;99.90;;;;;;6749733;88;20114;-83
2023/12/25 08:12:29;;;;;;;;;;;11.30;99.90;;;;;;6750018;88;20081;-82
2023/12/25 08:22:30;;;;;;;;;;;11.40;99.90;;;;;;6751362;88;20732;-84
2023/12/25 08:32:31;;;;;;;;;;;11.30;99.90;;;;;;6766258;88;20017;-83
2023/12/25 09:23:23;;;;;;;;;;;11.40;99.90;;;;;;6767013;88;20072;-83
2023/12/25 09:33:24;;;;;;;;;;;11.60;99.90;;;;;;6767202;88;20069;-84
2023/12/25 09:43:26;;;;;;;;;;;11.70;99.90;;;;;;6766531;88;20060;-85
2023/12/25 09:53:27;;;;;;;;;;;11.80;99.90;;;;;;6766939;88;20144;-84
2023/12/25 10:14:09;;;;;;;;;;;11.90;99.90;;;;;;6781033;87;20140;-83
2023/12/25 10:24:10;;;;;;;;;;;12.00;99.90;;;;;;6780480;88;20072;-84
2023/12/25 10:34:11;;;;;;;;;;;12.30;99.90;;;;;;6782029;87;20070;-82
2023/12/25 10:44:11;;;;;;;;;;;12.30;99.90;;;;;;6780045;87;20081;-82
2023/12/25 10:54:12;;;;;;;;;;;12.40;99.90;;;;;;6779218;87;20057;-82
2023/12/25 11:04:16;;;;;;;;;;;12.60;99.90;;;;;;6780171;88;20053;-83
2023/12/25 11:14:16;;;;;;;;;;;12.70;99.90;;;;;;6710235;88;20080;-83
2023/12/25 11:24:17;;;;;;;;;;;12.60;99.90;;;;;;6708734;88;20563;-81
2023/12/25 11:34:26;;;;;;;;;;;12.80;99.90;;;;;;6776643;88;20110;-81
2023/12/25 11:44:30;;;;;;;;;;;12.90;99.90;;;;;;6773668;87;20084;-80
2023/12/25 11:54:33;;;;;;;;;;;12.90;99.90;;;;;;6695213;88;20093;-80
2023/12/25 12:04:33;;;;;;;;;;;12.90;99.90;;;;;;6686859;89;20067;-82
2023/12/25 12:14:36;;;;;;;;;;;13.10;99.90;;;;;;6701108;88;20049;-82
2023/12/25 12:24:36;;;;;;;;;;;13.00;99.90;;;;;;6686071;89;20161;-83
2023/12/25 12:34:37;;;;;;;;;;;13.00;99.90;;;;;;6685317;89;20099;-80
2023/12/25 12:44:38;;;;;;;;;;;13.10;99.90;;;;;;6699387;88;20082;-81
2023/12/25 12:54:38;;;;;;;;;;;13.10;99.90;;;;;;6696975;88;20052;-84
2023/12/25 13:04:39;;;;;;;;;;;13.10;99.90;;;;;;6686189;88;20119;-81
2023/12/25 13:14:39;;;;;;;;;;;13.10;99.90;;;;;;6686914;89;20056;-81
2023/12/25 13:24:40;;;;;;;;;;;13.10;99.90;;;;;;6699877;88;20078;-81
2023/12/25 13:34:45;;;;;;;;;;;13.10;99.90;;;;;;6685830;89;20063;-82
2023/12/25 13:44:45;;;;;;;;;;;13.10;99.90;;;;;;6684037;89;20072;-82
2023/12/25 13:54:47;;;;;;;;;;;13.10;99.90;;;;;;6683829;89;20167;-81
2023/12/25 14:04:47;;;;;;;;;;;13.10;99.90;;;;;;6688699;89;20080;-81
2023/12/25 14:14:47;;;;;;;;;;;12.50;99.90;;;;;;6688990;89;20745;-83
2023/12/25 14:24:48;;;;;;;;;;;12.20;99.90;;;;;;6688484;88;20100;-82
2023/12/25 14:34:49;;;;;;;;;;;12.20;99.90;;;;;;6686582;89;20559;-81
2023/12/25 14:44:49;;;;;;;;;;;12.30;99.90;;;;;;6697368;88;20201;-81
2023/12/25 14:54:52;;;;;;;;;;;12.40;99.90;;;;;;6688912;89;20093;-81
2023/12/25 15:04:52;;;;;;;;;;;12.40;99.90;;;;;;6681697;89;20053;-81
2023/12/25 15:14:53;;;;;;;;;;;12.40;99.90;;;;;;6682593;89;20537;-81
2023/12/25 15:24:53;;;;;;;;;;;12.40;99.90;;;;;;6684029;89;20539;-81
2023/12/25 15:34:54;;;;;;;;;;;12.50;99.90;;;;;;6683886;89;20081;-81
2023/12/25 15:44:54;;;;;;;;;;;12.60;99.90;;;;;;6683731;89;20081;-81
2023/12/25 15:54:55;;;;;;;;;;;12.60;99.90;;;;;;6686600;88;20057;-81
2023/12/25 16:05:16;;;;;;;;;;;12.60;99.90;;;;;;6720684;77;20124;-81
2023/12/25 16:15:16;;;;;;;;;;;12.50;99.90;;;;;;6781651;88;20072;-81
2023/12/25 16:25:17;;;;;;;;;;;12.50;99.90;;;;;;6742830;88;20101;-81
2023/12/25 16:35:17;;;;;;;;;;;12.60;99.90;;;;;;6749646;88;20161;-82
2023/12/25 16:45:18;;;;;;;;;;;12.50;99.90;;;;;;6745506;88;20266;-81
2023/12/25 16:55:18;;;;;;;;;;;12.60;99.90;;;;;;6744739;88;20106;-82
2023/12/25 17:05:19;;;;;;;;;;;12.50;99.90;;;;;;6730710;88;20734;-81
2023/12/25 17:15:19;;;;;;;;;;;12.40;99.90;;;;;;6740622;88;20067;-81
2023/12/25 17:25:20;;;;;;;;;;;12.40;99.90;;;;;;6750785;88;20204;-81
2023/12/25 17:35:20;;;;;;;;;;;12.50;99.90;;;;;;6780300;87;20052;-82
2023/12/25 17:45:21;;;;;;;;;;;12.20;99.90;;;;;;6749018;88;20033;-81
2023/12/25 17:55:22;;;;;;;;;;;12.10;99.90;;;;;;6743596;88;20030;-83
2023/12/25 18:05:22;;;;;;;;;;;12.00;99.90;;;;;;6758720;88;20037;-82
2023/12/25 18:15:23;;;;;;;;;;;12.00;99.90;;;;;;6784074;87;20042;-82
2023/12/25 18:25:23;;;;;;;;;;;12.30;99.90;;;;;;6661332;88;20042;-82
2023/12/25 18:35:24;;;;;;;;;;;12.40;99.90;;;;;;6659739;88;20051;-83
2023/12/25 18:45:24;;;;;;;;;;;12.60;99.90;;;;;;6660560;88;20077;-85
2023/12/25 18:55:24;;;;;;;;;;;12.40;99.90;;;;;;6701200;88;20067;-85
2023/12/25 19:05:25;;;;;;;;;;;12.50;99.90;;;;;;6712375;87;20047;-82
2023/12/25 19:15:25;;;;;;;;;;;12.60;99.90;;;;;;6712259;88;20078;-86
2023/12/25 19:25:28;;;;;;;;;;;12.50;99.90;;;;;;6712314;87;20090;-86
2023/12/25 19:35:28;;;;;;;;;;;12.60;99.90;;;;;;6712083;88;20801;-86
2023/12/25 19:45:29;;;;;;;;;;;12.50;99.90;;;;;;6712603;87;20085;-85
2023/12/25 19:55:29;;;;;;;;;;;12.60;99.90;;;;;;6713566;87;20053;-84
2023/12/25 20:05:29;;;;;;;;;;;12.60;99.90;;;;;;6711725;87;20090;-83
2023/12/25 20:15:30;;;;;;;;;;;12.60;99.90;;;;;;6724697;87;20053;-85
2023/12/25 20:25:31;;;;;;;;;;;12.60;99.90;;;;;;6783314;87;20909;-83
2023/12/25 20:35:32;;;;;;;;;;;12.60;99.90;;;;;;6779810;88;20053;-84
2023/12/25 20:45:32;;;;;;;;;;;12.60;99.90;;;;;;6766366;88;20075;-84
2023/12/25 20:55:36;;;;;;;;;;;12.70;99.90;;;;;;6765819;88;20018;-84
2023/12/25 21:05:36;;;;;;;;;;;12.60;99.90;;;;;;6764966;88;20047;-86
2023/12/25 21:15:37;;;;;;;;;;;12.70;99.90;;;;;;6764317;88;20160;-85
2023/12/25 21:25:37;;;;;;;;;;;12.70;99.90;;;;;;6764357;88;20039;-84
2023/12/25 21:35:38;;;;;;;;;;;12.60;99.90;;;;;;6766780;88;20601;-84
2023/12/25 21:45:41;;;;;;;;;;;12.60;99.90;;;;;;6766358;88;20087;-86
2023/12/25 21:55:42;;;;;;;;;;;12.60;99.90;;;;;;6766397;88;20053;-84
2023/12/25 22:06:03;;;;;;;;;;;12.50;99.90;;;;;;6750552;77;20569;-82
2023/12/25 22:16:04;;;;;;;;;;;12.50;99.90;;;;;;6750213;88;20058;-82
2023/12/25 22:26:04;;;;;;;;;;;12.50;99.90;;;;;;6748352;88;20109;-82
2023/12/25 22:36:05;;;;;;;;;;;12.50;99.90;;;;;;6757994;88;20164;-82
2023/12/25 22:46:05;;;;;;;;;;;12.50;99.90;;;;;;6732215;88;20213;-82
2023/12/25 22:56:06;;;;;;;;;;;12.50;99.90;;;;;;6743126;87;20063;-81
2023/12/25 23:06:07;;;;;;;;;;;12.60;99.90;;;;;;6759956;88;20236;-81
2023/12/25 23:16:07;;;;;;;;;;;12.50;99.90;;;;;;6753068;88;20520;-81
2023/12/25 23:26:14;;;;;;;;;;;12.40;99.90;;;;;;6752414;88;20169;-81
2023/12/25 23:36:15;;;;;;;;;;;12.40;99.90;;;;;;6751746;88;20702;-81
2023/12/25 23:46:15;;;;;;;;;;;12.40;99.90;;;;;;6751522;88;20090;-82
2023/12/25 23:56:17;;;;;;;;;;;12.40;99.90;;;;;;6746515;88;20569;-82
